Time;durP1;ratioP1;P1;durP2;ratioP2;P2;SDS_P1;SDS_P2;PMS_P1;PMS_P2;Temp;Humidity;BMP_temperature;BMP_pressure;BME280_temperature;BME280_humidity;BME280_pressure;Samples;Min_cycle;Max_cycle;Signal;HPM_P1;HPM_P2
2023/06/14 00:00:09;;;;;;;3.38;1.10;;;20.40;96.70;;;;;;4982398;28;20054;-69
2023/06/14 00:02:37;;;;;;;4.50;1.48;;;20.40;96.70;;;;;;4982711;28;20567;-68
2023/06/14 00:05:06;;;;;;;4.40;1.50;;;20.50;96.70;;;;;;4982448;28;20442;-69
2023/06/14 00:07:35;;;;;;;2.92;1.30;;;20.40;96.70;;;;;;4984186;28;20511;-69
2023/06/14 00:10:04;;;;;;;6.22;1.55;;;20.50;96.70;;;;;;4975720;28;20121;-69
2023/06/14 00:12:32;;;;;;;2.05;1.30;;;20.50;96.70;;;;;;4984812;28;20624;-69
2023/06/14 00:15:03;;;;;;;3.28;1.00;;;20.40;96.70;;;;;;4984160;28;20088;-68
2023/06/14 00:17:33;;;;;;;4.82;1.67;;;20.30;96.70;;;;;;4979737;28;20489;-68
2023/06/14 00:20:06;;;;;;;3.53;1.50;;;20.00;96.70;;;;;;4982329;28;20062;-68
2023/06/14 00:22:36;;;;;;;6.85;1.52;;;19.90;96.70;;;;;;4984394;28;20046;-69
2023/06/14 00:25:06;;;;;;;3.28;1.20;;;20.00;96.70;;;;;;4982149;28;20096;-68
2023/06/14 00:27:54;;;;;;;4.93;1.45;;;20.20;96.70;;;;;;4983233;28;20042;-68
2023/06/14 00:30:23;;;;;;;2.72;1.27;;;20.30;96.70;;;;;;4981048;28;20038;-68
2023/06/14 00:32:53;;;;;;;5.40;1.60;;;20.30;96.70;;;;;;4977465;28;20378;-68
2023/06/14 00:35:25;;;;;;;4.65;1.55;;;20.10;96.70;;;;;;4973023;28;20050;-68
2023/06/14 00:37:54;;;;;;;4.18;1.30;;;20.10;96.70;;;;;;4981354;28;20396;-68
2023/06/14 00:40:22;;;;;;;3.28;1.30;;;20.00;96.70;;;;;;4983646;28;20136;-68
2023/06/14 00:42:51;;;;;;;4.55;1.67;;;20.00;96.70;;;;;;4983984;28;20073;-68
2023/06/14 00:45:19;;;;;;;3.75;1.50;;;19.90;96.70;;;;;;4974640;28;20082;-68
2023/06/14 00:47:52;;;;;;;4.65;1.55;;;20.00;96.70;;;;;;4965250;28;20051;-68
2023/06/14 00:50:23;;;;;;;6.07;1.73;;;20.00;96.70;;;;;;4982055;28;20044;-68
2023/06/14 00:52:51;;;;;;;2.17;1.30;;;20.10;96.70;;;;;;4977657;28;20157;-68
2023/06/14 00:55:20;;;;;;;4.22;1.40;;;20.10;96.70;;;;;;4983977;28;20068;-69
2023/06/14 00:57:49;;;;;;;4.45;1.30;;;20.10;96.70;;;;;;4986030;28;20412;-68
2023/06/14 01:00:18;;;;;;;5.53;1.95;;;20.10;96.70;;;;;;4987658;28;20050;-69
2023/06/14 01:02:47;;;;;;;3.40;1.30;;;20.10;96.70;;;;;;4984023;28;20105;-68
2023/06/14 01:05:16;;;;;;;2.08;1.65;;;20.10;96.70;;;;;;5001928;28;20560;-68
2023/06/14 01:08:00;;;;;;;2.38;1.52;;;20.00;96.70;;;;;;4985876;28;20061;-68
2023/06/14 01:10:35;;;;;;;2.88;1.52;;;19.90;96.70;;;;;;4986397;28;20109;-68
2023/06/14 01:13:10;;;;;;;2.85;1.77;;;19.90;96.70;;;;;;4971099;28;20057;-68
2023/06/14 01:15:40;;;;;;;5.53;2.00;;;19.90;96.70;;;;;;4973850;28;20100;-68
2023/06/14 01:18:17;;;;;;;3.13;2.03;;;19.80;96.70;;;;;;4976009;28;20046;-68
2023/06/14 01:20:50;;;;;;;3.03;1.50;;;19.90;96.70;;;;;;4980580;28;20043;-69
2023/06/14 01:23:21;;;;;;;3.17;1.60;;;19.90;96.70;;;;;;4986760;28;20042;-68
2023/06/14 01:25:53;;;;;;;5.60;1.80;;;20.00;96.70;;;;;;4985707;28;20058;-68
2023/06/14 01:28:22;;;;;;;3.88;1.88;;;20.00;96.70;;;;;;4975991;28;20046;-68
2023/06/14 01:30:54;;;;;;;2.42;1.95;;;20.10;96.70;;;;;;4969869;28;20042;-68
2023/06/14 01:33:26;;;;;;;4.10;1.95;;;20.10;96.70;;;;;;4968606;28;20405;-68
2023/06/14 01:35:59;;;;;;;3.95;1.65;;;20.10;96.70;;;;;;4976823;28;20046;-68
2023/06/14 01:38:32;;;;;;;3.97;1.80;;;20.20;96.70;;;;;;4985369;28;20061;-68
2023/06/14 01:41:02;;;;;;;4.28;1.77;;;20.10;96.70;;;;;;4979198;28;20057;-69
2023/06/14 01:43:31;;;;;;;3.97;1.77;;;20.10;96.70;;;;;;4985459;28;20043;-68
2023/06/14 01:46:00;;;;;;;3.90;1.60;;;20.00;96.70;;;;;;4984505;28;20054;-68
2023/06/14 01:48:28;;;;;;;7.57;1.63;;;19.90;96.70;;;;;;4985341;28;20047;-68
2023/06/14 01:50:56;;;;;;;3.78;1.63;;;19.90;96.70;;;;;;4986049;28;20050;-68
2023/06/14 01:53:24;;;;;;;2.67;1.00;;;19.80;96.70;;;;;;4987214;28;20105;-68
2023/06/14 01:55:54;;;;;;;4.95;1.98;;;19.90;96.70;;;;;;4984371;28;20389;-68
2023/06/14 01:58:23;;;;;;;3.55;1.13;;;19.90;96.70;;;;;;4986173;28;20054;-68
2023/06/14 02:01:00;;;;;;;4.22;1.60;;;19.80;96.70;;;;;;4976133;28;20065;-69
2023/06/14 02:03:29;;;;;;;1.67;1.27;;;19.80;96.70;;;;;;4980624;28;20419;-68
2023/06/14 02:05:58;;;;;;;2.17;1.05;;;19.70;96.70;;;;;;4960305;28;20109;-68
2023/06/14 02:08:26;;;;;;;1.85;1.30;;;19.80;96.70;;;;;;4965866;28;20074;-68
2023/06/14 02:10:56;;;;;;;2.67;1.33;;;20.00;96.70;;;;;;5001012;28;20416;-68
2023/06/14 02:13:24;;;;;;;3.08;1.58;;;20.00;96.70;;;;;;4986899;28;20054;-68
2023/06/14 02:15:54;;;;;;;3.33;1.90;;;20.10;96.70;;;;;;4982044;28;20070;-68
2023/06/14 02:18:23;;;;;;;4.10;1.80;;;20.00;96.70;;;;;;4974743;28;20061;-68
2023/06/14 02:20:51;;;;;;;4.18;1.90;;;20.00;96.70;;;;;;4986087;28;20043;-69
2023/06/14 02:23:20;;;;;;;7.03;2.00;;;19.90;96.70;;;;;;4985542;28;20528;-68
2023/06/14 02:25:48;;;;;;;5.50;2.47;;;19.90;96.70;;;;;;4983823;28;20096;-69
2023/06/14 02:28:18;;;;;;;3.20;2.20;;;20.00;96.70;;;;;;4984734;28;20042;-68
2023/06/14 02:30:46;;;;;;;3.78;2.10;;;19.90;96.70;;;;;;4984293;28;20209;-68
2023/06/14 02:33:14;;;;;;;4.43;2.67;;;19.90;96.70;;;;;;4985267;28;20047;-69
2023/06/14 02:35:43;;;;;;;4.10;2.33;;;19.90;96.70;;;;;;4976878;28;20050;-68
2023/06/14 02:38:11;;;;;;;2.83;2.35;;;19.80;96.70;;;;;;4983035;28;20054;-69
2023/06/14 02:40:42;;;;;;;2.85;1.67;;;19.90;96.70;;;;;;4986110;28;20182;-68
2023/06/14 02:43:10;;;;;;;3.22;2.10;;;19.90;96.70;;;;;;4984292;28;20054;-68
2023/06/14 02:45:40;;;;;;;2.80;2.00;;;19.90;96.70;;;;;;5013882;28;20144;-68
2023/06/14 02:48:09;;;;;;;3.20;1.85;;;19.90;96.70;;;;;;5006348;28;20094;-68
2023/06/14 02:50:38;;;;;;;5.88;1.92;;;20.00;96.70;;;;;;5006788;28;20037;-69
2023/06/14 02:53:06;;;;;;;3.10;2.45;;;19.90;96.70;;;;;;5025663;28;20539;-68
2023/06/14 02:55:39;;;;;;;3.35;1.92;;;19.90;96.70;;;;;;5023951;28;20037;-68
2023/06/14 02:58:09;;;;;;;4.45;1.70;;;19.80;96.70;;;;;;5003432;28;20050;-68
2023/06/14 03:00:38;;;;;;;2.97;1.67;;;19.60;96.70;;;;;;5004983;28;20049;-68
2023/06/14 03:03:16;;;;;;;3.13;1.75;;;19.50;96.70;;;;;;5004851;28;20061;-68
2023/06/14 03:05:52;;;;;;;2.58;1.83;;;19.60;96.70;;;;;;4992870;28;20099;-68
2023/06/14 03:08:27;;;;;;;5.55;1.70;;;19.70;96.70;;;;;;5024648;28;20314;-68
2023/06/14 03:10:59;;;;;;;3.33;2.03;;;19.90;96.70;;;;;;5024386;28;20045;-68
2023/06/14 03:13:32;;;;;;;3.83;2.00;;;20.00;96.70;;;;;;5002004;28;21708;-68
2023/06/14 03:16:03;;;;;;;3.28;2.17;;;20.00;96.70;;;;;;5019529;28;20697;-68
2023/06/14 03:18:37;;;;;;;4.10;2.10;;;20.00;96.70;;;;;;5005686;28;20669;-68
2023/06/14 03:21:07;;;;;;;3.85;2.55;;;19.80;96.70;;;;;;5003272;28;20049;-68
2023/06/14 03:23:35;;;;;;;3.30;2.30;;;19.40;96.70;;;;;;4989272;28;20100;-69
2023/06/14 03:26:05;;;;;;;2.63;1.92;;;19.30;96.70;;;;;;4998387;28;20121;-68
2023/06/14 03:28:33;;;;;;;4.30;1.88;;;19.40;96.70;;;;;;5006119;28;20419;-68
2023/06/14 03:31:01;;;;;;;3.25;2.55;;;19.70;96.70;;;;;;4990479;28;20132;-69
2023/06/14 03:33:32;;;;;;;3.97;2.38;;;19.80;96.70;;;;;;5004979;28;20552;-68
2023/06/14 03:36:02;;;;;;;6.50;2.47;;;19.70;96.70;;;;;;5023788;28;20046;-68
2023/06/14 03:38:32;;;;;;;4.40;2.72;;;19.80;96.70;;;;;;4997712;28;20045;-68
2023/06/14 03:41:00;;;;;;;3.47;1.98;;;19.70;96.70;;;;;;5022246;28;20073;-68
2023/06/14 03:43:30;;;;;;;4.10;2.35;;;19.80;96.70;;;;;;4996204;28;20049;-68
2023/06/14 03:45:58;;;;;;;3.85;2.50;;;19.90;96.70;;;;;;5024148;28;20516;-68
2023/06/14 03:48:28;;;;;;;5.75;2.50;;;20.00;96.70;;;;;;4996801;28;20559;-68
2023/06/14 03:50:57;;;;;;;4.75;2.38;;;20.00;96.70;;;;;;5006225;28;20046;-68
2023/06/14 03:53:30;;;;;;;2.90;1.90;;;19.90;96.70;;;;;;4992166;28;20061;-68
2023/06/14 03:55:59;;;;;;;3.15;2.13;;;19.90;96.70;;;;;;5005117;28;20045;-69
2023/06/14 03:58:37;;;;;;;3.35;2.17;;;20.00;96.70;;;;;;5003154;28;20483;-69
2023/06/14 04:01:06;;;;;;;4.78;2.20;;;19.90;96.70;;;;;;5019836;28;20412;-68
2023/06/14 04:03:35;;;;;;;6.80;2.35;;;19.80;96.70;;;;;;5004992;28;20463;-69
2023/06/14 04:06:05;;;;;;;5.05;2.10;;;19.70;96.70;;;;;;5023253;28;20448;-69
2023/06/14 04:08:35;;;;;;;5.25;1.80;;;19.70;96.70;;;;;;5001050;28;20068;-69
2023/06/14 04:11:09;;;;;;;4.82;1.90;;;19.80;96.70;;;;;;5022439;28;20037;-68
2023/06/14 04:13:39;;;;;;;3.38;1.48;;;19.80;96.70;;;;;;5016928;28;20133;-68
2023/06/14 04:16:07;;;;;;;6.40;1.60;;;19.90;96.70;;;;;;5000884;28;20052;-69
2023/06/14 04:18:36;;;;;;;3.95;1.30;;;19.70;96.70;;;;;;5012621;28;20762;-69
2023/06/14 04:21:04;;;;;;;5.47;1.33;;;19.70;96.70;;;;;;4986666;28;20057;-69
2023/06/14 04:23:34;;;;;;;5.60;1.10;;;19.70;96.70;;;;;;5022260;28;20041;-69
2023/06/14 04:26:03;;;;;;;4.32;1.60;;;19.60;96.70;;;;;;5004194;28;20119;-69
2023/06/14 04:28:31;;;;;;;3.20;1.20;;;19.70;96.70;;;;;;5022675;28;20057;-69
2023/06/14 04:31:02;;;;;;;4.38;1.50;;;19.90;96.70;;;;;;4997011;28;20183;-69
2023/06/14 04:33:32;;;;;;;2.10;1.52;;;19.90;96.70;;;;;;5010698;28;20045;-68
2023/06/14 04:36:01;;;;;;;12.88;2.00;;;19.90;96.70;;;;;;5001867;28;20048;-68
2023/06/14 04:38:31;;;;;;;5.90;1.88;;;19.90;96.70;;;;;;5022367;28;20051;-69
2023/06/14 04:41:01;;;;;;;4.82;1.88;;;19.90;96.70;;;;;;4992348;28;20117;-69
2023/06/14 04:43:31;;;;;;;3.60;2.80;;;19.90;96.70;;;;;;4987010;28;20496;-69
2023/06/14 04:46:01;;;;;;;3.20;1.95;;;20.00;96.70;;;;;;5022954;28;20057;-69
2023/06/14 04:48:31;;;;;;;4.03;2.13;;;19.90;96.70;;;;;;5003361;28;20132;-69
2023/06/14 04:50:59;;;;;;;3.20;2.17;;;19.80;96.70;;;;;;5005001;28;20053;-68
2023/06/14 04:53:28;;;;;;;3.53;1.98;;;19.80;96.70;;;;;;5023464;28;20153;-68
2023/06/14 04:55:57;;;;;;;4.25;1.98;;;19.80;96.70;;;;;;5021673;28;20478;-68
2023/06/14 04:58:28;;;;;;;5.72;2.20;;;19.90;96.70;;;;;;5005436;28;20095;-69
2023/06/14 05:00:57;;;;;;;3.35;2.20;;;20.00;96.70;;;;;;5017949;28;20052;-69
2023/06/14 05:03:30;;;;;;;8.45;2.60;;;20.00;96.70;;;;;;5002666;28;20045;-68
2023/06/14 05:06:00;;;;;;;5.53;2.45;;;20.00;96.70;;;;;;5005161;28;20160;-69
2023/06/14 05:08:29;;;;;;;5.07;2.53;;;20.00;96.70;;;;;;4998109;28;20543;-69
2023/06/14 05:10:58;;;;;;;5.22;2.17;;;20.00;96.70;;;;;;5020385;28;20037;-69
2023/06/14 05:13:28;;;;;;;6.55;2.13;;;20.10;96.70;;;;;;5021092;28;20041;-69
2023/06/14 05:15:57;;;;;;;4.82;2.03;;;20.20;96.70;;;;;;5016444;28;20149;-69
2023/06/14 05:18:28;;;;;;;5.03;2.67;;;20.10;96.70;;;;;;4991184;28;20046;-69
2023/06/14 05:20:56;;;;;;;4.13;2.15;;;20.10;96.70;;;;;;5019245;28;20133;-69
2023/06/14 05:23:24;;;;;;;4.00;1.95;;;20.20;96.70;;;;;;5022020;28;20100;-69
2023/06/14 05:25:52;;;;;;;2.88;2.00;;;20.30;96.70;;;;;;5002357;28;20067;-69
2023/06/14 05:28:20;;;;;;;3.67;2.17;;;20.40;96.70;;;;;;5005887;28;20050;-69
2023/06/14 05:30:51;;;;;;;4.38;2.15;;;20.50;96.70;;;;;;5022594;28;20076;-69
2023/06/14 05:33:19;;;;;;;7.03;2.13;;;20.60;96.70;;;;;;5022059;28;20551;-69
2023/06/14 05:35:47;;;;;;;3.60;2.05;;;20.70;96.70;;;;;;5021501;28;20064;-69
2023/06/14 05:38:15;;;;;;;3.85;2.00;;;20.70;96.70;;;;;;5022012;28;20045;-69
2023/06/14 05:40:43;;;;;;;2.88;2.35;;;20.80;96.70;;;;;;5022761;28;20050;-71
2023/06/14 05:43:11;;;;;;;3.40;2.13;;;20.90;96.70;;;;;;5008388;28;20051;-69
2023/06/14 05:45:41;;;;;;;2.83;1.88;;;20.90;96.70;;;;;;5023499;28;20045;-69
2023/06/14 05:48:11;;;;;;;3.83;2.25;;;21.00;96.70;;;;;;5007985;28;20068;-69
2023/06/14 05:50:39;;;;;;;3.03;1.45;;;21.10;96.70;;;;;;5025525;28;20043;-69
2023/06/14 05:53:07;;;;;;;3.15;1.60;;;21.20;96.70;;;;;;5025359;28;20487;-69
2023/06/14 05:55:35;;;;;;;4.13;1.90;;;21.30;96.70;;;;;;5025524;28;20776;-69
2023/06/14 05:58:05;;;;;;;2.30;1.65;;;21.30;96.70;;;;;;4997140;28;20041;-69
2023/06/14 06:00:33;;;;;;;3.45;2.25;;;21.20;96.70;;;;;;5026002;28;20045;-69
2023/06/14 06:03:01;;;;;;;4.22;2.20;;;21.20;96.70;;;;;;5006866;28;20069;-69
2023/06/14 06:05:31;;;;;;;2.40;2.10;;;21.30;96.70;;;;;;5016067;28;20120;-72
2023/06/14 06:08:00;;;;;;;2.88;2.25;;;21.30;96.70;;;;;;5019237;28;20120;-70
2023/06/14 06:10:28;;;;;;;3.08;2.10;;;21.40;96.70;;;;;;5003399;28;20479;-70
2023/06/14 06:12:56;;;;;;;3.55;2.17;;;21.50;96.70;;;;;;5007984;28;20045;-70
2023/06/14 06:15:24;;;;;;;5.30;2.17;;;21.50;96.70;;;;;;5025838;28;20046;-70
2023/06/14 06:17:52;;;;;;;2.67;2.05;;;21.50;96.70;;;;;;4996590;28;20034;-70
2023/06/14 06:20:28;;;;;;;2.55;2.35;;;21.50;96.70;;;;;;5024013;28;20075;-71
2023/06/14 06:22:59;;;;;;;2.78;1.83;;;21.50;96.70;;;;;;4990330;28;20065;-70
2023/06/14 06:25:27;;;;;;;3.53;2.53;;;21.50;96.70;;;;;;5021877;28;20045;-70
2023/06/14 06:27:58;;;;;;;5.25;2.30;;;21.60;96.70;;;;;;5023771;28;20491;-70
2023/06/14 06:30:26;;;;;;;2.92;2.25;;;21.60;96.70;;;;;;5024218;28;20584;-70
2023/06/14 06:32:55;;;;;;;4.95;2.08;;;21.60;96.70;;;;;;5016629;28;20045;-70
2023/06/14 06:35:24;;;;;;;4.63;2.50;;;21.70;96.70;;;;;;5007089;28;20053;-69
2023/06/14 06:37:52;;;;;;;5.22;2.03;;;21.80;96.70;;;;;;5024483;28;20056;-70
2023/06/14 06:40:22;;;;;;;4.28;2.13;;;21.80;96.70;;;;;;5025287;28;20056;-70
2023/06/14 06:42:50;;;;;;;3.63;1.98;;;21.90;96.70;;;;;;5024987;28;20037;-69
2023/06/14 06:45:20;;;;;;;2.50;1.98;;;22.00;96.70;;;;;;5007236;28;20453;-70
2023/06/14 06:47:51;;;;;;;2.92;1.92;;;22.00;96.70;;;;;;5007771;28;20130;-70
2023/06/14 06:50:20;;;;;;;2.80;1.80;;;22.00;96.70;;;;;;5006710;28;20511;-71
2023/06/14 06:52:48;;;;;;;2.33;1.95;;;22.00;96.70;;;;;;5024411;28;20045;-71
2023/06/14 06:55:16;;;;;;;3.25;1.90;;;22.00;96.70;;;;;;4990636;28;20037;-71
2023/06/14 06:57:46;;;;;;;3.15;1.92;;;22.10;96.70;;;;;;5022517;28;20049;-71
2023/06/14 07:00:15;;;;;;;3.40;1.90;;;22.20;96.70;;;;;;4997386;28;20510;-70
2023/06/14 07:02:44;;;;;;;3.58;2.22;;;22.30;96.70;;;;;;4987829;28;20050;-71
2023/06/14 07:05:12;;;;;;;4.60;2.15;;;22.40;96.70;;;;;;4995037;28;20046;-71
2023/06/14 07:07:40;;;;;;;4.82;2.42;;;22.50;96.70;;;;;;5005065;28;20511;-70
2023/06/14 07:10:09;;;;;;;5.13;2.42;;;22.60;96.70;;;;;;5005432;28;20569;-71
2023/06/14 07:12:39;;;;;;;5.18;2.35;;;22.60;96.70;;;;;;5004662;28;20065;-71
2023/06/14 07:15:10;;;;;;;3.42;2.15;;;22.70;96.70;;;;;;5018402;28;20510;-71
2023/06/14 07:17:38;;;;;;;2.25;1.67;;;22.70;96.70;;;;;;5024158;28;20069;-71
2023/06/14 07:20:08;;;;;;;2.10;1.90;;;22.90;96.70;;;;;;5024509;28;20048;-70
2023/06/14 07:22:36;;;;;;;3.45;2.08;;;22.90;96.70;;;;;;5004200;28;20057;-70
2023/06/14 07:25:05;;;;;;;4.95;2.33;;;22.90;96.70;;;;;;5006716;28;20049;-70
2023/06/14 07:27:33;;;;;;;6.43;2.13;;;22.90;96.70;;;;;;5024554;28;20065;-70
2023/06/14 07:30:01;;;;;;;3.22;1.77;;;23.00;96.70;;;;;;5023761;28;20095;-70
2023/06/14 07:32:30;;;;;;;2.85;1.75;;;23.00;96.70;;;;;;5023598;28;20038;-70
2023/06/14 07:34:59;;;;;;;1.95;1.80;;;23.00;96.70;;;;;;5023508;28;20045;-70
2023/06/14 07:37:27;;;;;;;4.25;2.00;;;23.10;96.70;;;;;;5005666;28;20072;-70
2023/06/14 07:39:55;;;;;;;3.58;1.90;;;23.20;96.70;;;;;;5006208;28;20049;-73
2023/06/14 07:42:23;;;;;;;3.03;2.42;;;23.30;96.70;;;;;;5023721;28;20046;-73
2023/06/14 07:44:53;;;;;;;2.25;2.00;;;23.30;96.70;;;;;;5020762;28;20133;-72
2023/06/14 07:47:30;;;;;;;3.75;2.00;;;23.50;96.70;;;;;;5023837;28;20087;-73
2023/06/14 07:50:05;;;;;;;2.67;1.42;;;23.60;96.70;;;;;;5005821;28;20049;-70
2023/06/14 07:52:37;;;;;;;2.40;1.58;;;23.60;96.70;;;;;;5024101;28;20047;-70
2023/06/14 07:55:06;;;;;;;2.20;1.60;;;23.70;96.70;;;;;;5024159;28;20594;-70
2023/06/14 07:57:35;;;;;;;2.10;1.60;;;23.70;96.70;;;;;;5005759;28;20581;-70
2023/06/14 08:00:06;;;;;;;1.65;1.55;;;23.80;96.70;;;;;;5004588;28;20049;-70
2023/06/14 08:02:39;;;;;;;1.63;1.50;;;23.90;96.70;;;;;;5020584;28;20061;-70
2023/06/14 08:05:10;;;;;;;2.88;1.70;;;24.00;96.70;;;;;;5023278;28;20080;-71
2023/06/14 08:07:39;;;;;;;1.73;1.20;;;24.00;96.70;;;;;;5002521;28;20073;-71
2023/06/14 08:10:07;;;;;;;1.27;1.17;;;24.10;96.70;;;;;;5017423;28;20091;-71
2023/06/14 08:12:36;;;;;;;2.63;1.27;;;24.10;96.70;;;;;;5019770;28;20479;-71
2023/06/14 08:15:05;;;;;;;2.08;1.27;;;24.10;96.70;;;;;;5023288;28;20507;-71
2023/06/14 08:17:44;;;;;;;1.63;1.50;;;24.10;96.70;;;;;;5001987;28;20805;-70
2023/06/14 08:20:35;;;;;;;1.85;1.40;;;24.20;96.70;;;;;;5003412;28;20042;-70
2023/06/14 08:23:04;;;;;;;2.05;1.52;;;24.20;96.70;;;;;;4900787;29;20067;-71
2023/06/14 08:25:31;;;;;;;4.30;1.42;;;24.30;96.70;;;;;;4912372;29;20058;-70
2023/06/14 08:28:00;;;;;;;1.70;1.50;;;24.30;96.70;;;;;;4932479;29;20052;-71
2023/06/14 08:30:27;;;;;;;4.72;1.75;;;24.30;96.70;;;;;;4903033;29;20417;-70
2023/06/14 08:32:57;;;;;;;1.48;1.38;;;24.30;96.70;;;;;;4927497;29;20051;-70
2023/06/14 08:35:42;;;;;;;4.78;1.83;;;24.40;96.70;;;;;;4914583;29;20218;-71
2023/06/14 08:38:11;;;;;;;3.58;1.50;;;24.50;96.70;;;;;;4921574;29;20094;-70
2023/06/14 08:40:41;;;;;;;2.33;1.40;;;24.50;96.70;;;;;;4922699;29;20439;-71
2023/06/14 08:43:10;;;;;;;4.53;1.58;;;24.40;96.70;;;;;;4904143;29;20471;-70
2023/06/14 08:45:38;;;;;;;2.05;1.27;;;24.40;96.70;;;;;;4891510;29;20059;-70
2023/06/14 08:48:27;;;;;;;4.07;1.92;;;24.30;96.70;;;;;;4903580;29;20067;-71
2023/06/14 08:51:01;;;;;;;2.42;1.30;;;24.50;96.70;;;;;;4904407;29;20052;-71
2023/06/14 08:53:31;;;;;;;4.18;1.60;;;24.60;96.70;;;;;;4923420;28;20065;-71
2023/06/14 08:56:05;;;;;;;1.52;1.30;;;24.70;96.70;;;;;;5003407;28;20065;-71
2023/06/14 08:58:34;;;;;;;2.13;1.55;;;24.80;96.70;;;;;;5000135;28;20530;-71
2023/06/14 09:01:02;;;;;;;2.53;1.10;;;25.00;96.70;;;;;;5004997;28;20049;-71
2023/06/14 09:03:32;;;;;;;1.40;1.30;;;25.10;96.70;;;;;;5000550;28;20530;-71
2023/06/14 09:06:01;;;;;;;2.05;1.10;;;25.30;96.70;;;;;;5002644;28;20064;-71
2023/06/14 09:08:30;;;;;;;2.05;1.00;;;25.30;96.70;;;;;;5003809;28;20558;-71
2023/06/14 09:10:58;;;;;;;1.13;1.02;;;25.50;96.70;;;;;;4987299;28;20133;-71
2023/06/14 09:13:28;;;;;;;2.90;1.33;;;25.60;96.70;;;;;;4999302;28;20666;-70
2023/06/14 09:15:58;;;;;;;4.15;1.75;;;25.50;96.70;;;;;;5000667;28;20049;-70
2023/06/14 09:18:35;;;;;;;1.42;1.30;;;25.60;96.70;;;;;;5005518;28;20456;-70
2023/06/14 09:21:05;;;;;;;2.03;1.20;;;25.80;96.70;;;;;;5006787;28;20166;-70
2023/06/14 09:23:36;;;;;;;1.38;1.13;;;25.70;96.70;;;;;;5006863;28;20116;-70
2023/06/14 09:26:07;;;;;;;2.38;1.67;;;25.60;96.70;;;;;;5006811;28;20169;-70
2023/06/14 09:28:36;;;;;;;1.73;1.00;;;25.70;96.70;;;;;;5003698;28;20599;-71
2023/06/14 09:31:05;;;;;;;1.10;1.00;;;25.80;96.70;;;;;;5003532;28;20504;-71
2023/06/14 09:33:35;;;;;;;1.48;1.10;;;25.80;96.70;;;;;;5005098;28;20108;-70
2023/06/14 09:36:04;;;;;;;1.73;1.00;;;25.70;96.70;;;;;;5006707;28;20042;-70
2023/06/14 09:38:34;;;;;;;1.30;1.17;;;25.80;96.70;;;;;;5006779;28;20372;-71
2023/06/14 09:41:04;;;;;;;1.10;1.00;;;26.00;96.70;;;;;;5006066;28;20599;-70
2023/06/14 09:43:33;;;;;;;1.50;0.95;;;26.20;96.70;;;;;;5006894;28;20060;-70
2023/06/14 09:46:03;;;;;;;1.83;1.00;;;26.20;96.70;;;;;;5023134;28;20081;-70
2023/06/14 09:48:31;;;;;;;1.17;1.05;;;26.30;96.70;;;;;;5025912;28;20707;-71
2023/06/14 09:51:02;;;;;;;2.42;1.08;;;26.40;96.70;;;;;;5007496;28;20065;-71
2023/06/14 09:53:31;;;;;;;1.42;1.33;;;26.50;96.70;;;;;;5025656;28;20377;-70
2023/06/14 09:55:59;;;;;;;3.05;1.17;;;26.60;96.70;;;;;;4999619;28;20048;-70
2023/06/14 09:58:30;;;;;;;1.13;1.00;;;26.60;96.70;;;;;;5026269;28;20051;-71
2023/06/14 10:00:59;;;;;;;2.30;1.30;;;26.50;96.70;;;;;;5026194;28;20052;-70
2023/06/14 10:03:29;;;;;;;3.03;1.02;;;26.40;96.70;;;;;;5026048;28;20052;-70
2023/06/14 10:06:20;;;;;;;2.28;1.30;;;26.30;96.70;;;;;;5010339;28;20034;-70
2023/06/14 10:08:50;;;;;;;1.88;1.40;;;26.30;96.70;;;;;;5025645;28;20045;-70
2023/06/14 10:11:18;;;;;;;0.98;0.90;;;26.40;96.70;;;;;;5007018;28;20057;-70
2023/06/14 10:13:47;;;;;;;1.30;1.20;;;26.50;96.70;;;;;;5007104;28;20116;-71
2023/06/14 10:16:20;;;;;;;1.20;1.10;;;26.50;96.70;;;;;;5023473;28;20444;-70
2023/06/14 10:18:52;;;;;;;1.65;1.00;;;26.50;96.70;;;;;;4998046;28;20045;-70
2023/06/14 10:21:31;;;;;;;4.10;1.15;;;26.50;96.70;;;;;;5025149;28;20053;-70
2023/06/14 10:24:04;;;;;;;1.77;1.20;;;26.50;96.70;;;;;;5006486;28;20041;-70
2023/06/14 10:26:33;;;;;;;2.45;1.10;;;26.80;96.70;;;;;;5025506;28;20057;-70
2023/06/14 10:29:06;;;;;;;1.60;1.30;;;26.70;96.70;;;;;;5024107;28;20043;-70
2023/06/14 10:31:42;;;;;;;1.52;1.00;;;26.40;96.70;;;;;;5025959;28;20069;-70
2023/06/14 10:34:10;;;;;;;1.52;0.98;;;26.20;96.70;;;;;;5025166;28;20049;-70
2023/06/14 10:36:43;;;;;;;1.40;1.10;;;26.30;96.70;;;;;;5024868;28;20071;-70
2023/06/14 10:39:19;;;;;;;1.38;1.17;;;26.20;96.70;;;;;;5025537;28;20487;-70
2023/06/14 10:41:55;;;;;;;2.00;1.00;;;26.20;96.70;;;;;;5024985;28;20103;-70
2023/06/14 10:44:40;;;;;;;1.42;1.17;;;26.00;96.70;;;;;;5018518;28;20064;-70
2023/06/14 10:47:10;;;;;;;2.13;1.10;;;25.90;96.70;;;;;;5018382;28;20069;-70
2023/06/14 10:49:41;;;;;;;1.20;1.00;;;25.90;96.70;;;;;;5007088;28;20053;-70
2023/06/14 10:55:14;;;;;;;1.90;1.30;;;26.00;96.70;;;;;;5363185;23;19927;-72
2023/06/14 10:57:46;;;;;;;1.52;1.02;;;26.10;96.70;;;;;;4908027;29;20365;-72
2023/06/14 11:00:25;;;;;;;2.42;1.42;;;26.30;96.70;;;;;;4901367;29;20044;-73
2023/06/14 11:03:29;;;;;;;3.65;1.40;;;26.50;96.70;;;;;;4895193;29;20632;-73
2023/06/14 11:05:58;;;;;;;1.40;1.13;;;26.50;96.70;;;;;;4888806;29;20052;-70
2023/06/14 11:09:11;;;;;;;1.63;1.10;;;26.40;96.70;;;;;;4890197;29;20147;-71
2023/06/14 11:11:44;;;;;;;2.05;1.20;;;26.40;96.70;;;;;;4863685;29;20064;-71
2023/06/14 11:14:12;;;;;;;2.00;1.20;;;26.80;96.70;;;;;;4889478;29;20120;-72
2023/06/14 11:16:41;;;;;;;1.80;1.10;;;27.10;96.70;;;;;;4889872;29;20048;-71
2023/06/14 11:19:10;;;;;;;1.30;1.08;;;27.40;96.70;;;;;;4903802;29;20524;-71
2023/06/14 11:21:40;;;;;;;1.90;1.20;;;27.50;96.70;;;;;;4889106;29;20084;-72
2023/06/14 11:24:11;;;;;;;1.80;1.00;;;27.50;96.70;;;;;;4887982;29;20103;-71
2023/06/14 11:26:41;;;;;;;2.33;1.23;;;27.60;96.70;;;;;;4889048;29;20056;-72
2023/06/14 11:29:10;;;;;;;1.40;1.10;;;27.80;96.70;;;;;;4887980;29;20682;-70
2023/06/14 11:31:43;;;;;;;1.45;0.90;;;28.00;96.70;;;;;;4887987;29;20079;-71
2023/06/14 11:34:12;;;;;;;0.85;0.70;;;27.60;96.70;;;;;;4886854;29;20045;-70
2023/06/14 11:36:41;;;;;;;1.77;1.00;;;27.30;96.70;;;;;;4886778;29;20095;-71
2023/06/14 11:39:10;;;;;;;1.42;0.82;;;27.70;96.70;;;;;;4903245;29;20048;-70
2023/06/14 11:41:42;;;;;;;2.00;0.98;;;28.20;96.70;;;;;;4887362;29;20123;-71
2023/06/14 11:44:11;;;;;;;1.48;1.23;;;28.50;96.70;;;;;;4902954;29;20064;-72
2023/06/14 11:46:40;;;;;;;0.90;0.90;;;28.30;96.70;;;;;;4888414;29;20094;-72
2023/06/14 11:49:09;;;;;;;1.63;1.00;;;28.50;96.70;;;;;;4894163;29;20083;-71
2023/06/14 11:51:38;;;;;;;1.05;0.95;;;28.90;96.70;;;;;;4888181;29;20052;-70
2023/06/14 11:54:08;;;;;;;1.30;0.90;;;29.30;96.70;;;;;;4895111;29;20048;-70
2023/06/14 11:56:37;;;;;;;1.25;1.10;;;29.60;96.70;;;;;;4886879;29;20514;-72
2023/06/14 11:59:07;;;;;;;1.90;1.10;;;29.70;96.70;;;;;;4887688;29;20044;-73
2023/06/14 12:01:39;;;;;;;2.58;0.90;;;29.70;96.70;;;;;;4888776;29;20052;-70
2023/06/14 12:04:07;;;;;;;2.20;1.13;;;29.70;96.70;;;;;;4888636;29;20056;-71
2023/06/14 12:06:39;;;;;;;0.88;0.80;;;29.40;96.70;;;;;;4889027;29;20420;-72
2023/06/14 12:09:12;;;;;;;1.25;1.02;;;29.40;96.70;;;;;;4880349;29;20053;-70
2023/06/14 12:11:41;;;;;;;1.02;0.90;;;29.30;96.70;;;;;;4901939;29;20056;-70
2023/06/14 12:14:11;;;;;;;2.15;0.90;;;29.10;96.70;;;;;;4902907;29;20096;-71
2023/06/14 12:16:41;;;;;;;1.88;1.10;;;28.80;96.70;;;;;;4884428;29;20406;-71
2023/06/14 12:19:13;;;;;;;2.10;0.98;;;29.00;96.70;;;;;;4871228;29;20063;-70
2023/06/14 12:21:43;;;;;;;1.58;1.00;;;29.20;96.70;;;;;;4887749;29;20410;-71
2023/06/14 12:24:12;;;;;;;3.00;1.30;;;29.20;96.70;;;;;;4888223;29;20092;-71
2023/06/14 12:26:42;;;;;;;1.20;1.02;;;29.10;96.70;;;;;;4888335;29;20379;-73
2023/06/14 12:29:14;;;;;;;1.20;0.90;;;29.00;96.70;;;;;;4876225;29;20104;-70
2023/06/14 12:31:42;;;;;;;1.20;1.10;;;29.00;96.70;;;;;;4889916;29;20108;-71
2023/06/14 12:34:11;;;;;;;1.52;1.00;;;29.10;96.70;;;;;;4887431;29;20043;-70
2023/06/14 12:36:43;;;;;;;1.20;0.80;;;29.10;96.70;;;;;;4891539;29;20045;-72
2023/06/14 12:39:13;;;;;;;1.42;1.02;;;29.20;96.70;;;;;;4887268;29;20044;-72
2023/06/14 12:41:41;;;;;;;1.27;1.05;;;29.40;96.70;;;;;;4884121;29;20051;-71
2023/06/14 12:44:11;;;;;;;2.80;1.00;;;29.50;96.70;;;;;;4888246;29;20045;-72
2023/06/14 12:46:41;;;;;;;1.48;0.80;;;29.60;96.70;;;;;;4885607;29;20727;-70
2023/06/14 12:49:11;;;;;;;1.98;1.00;;;29.80;96.70;;;;;;4880101;29;20687;-71
2023/06/14 12:51:40;;;;;;;1.25;0.90;;;29.70;96.70;;;;;;4884743;29;20048;-70
2023/06/14 12:54:09;;;;;;;2.67;1.20;;;29.50;96.70;;;;;;4883565;29;20599;-70
2023/06/14 12:56:37;;;;;;;2.08;1.08;;;29.80;96.70;;;;;;4885741;29;20155;-70
2023/06/14 12:59:06;;;;;;;1.40;1.00;;;29.60;96.70;;;;;;4901456;29;20131;-69
2023/06/14 13:01:34;;;;;;;1.95;0.93;;;29.50;96.70;;;;;;4887319;29;20071;-69
2023/06/14 13:04:04;;;;;;;1.48;1.00;;;29.30;96.70;;;;;;4887541;29;20060;-70
2023/06/14 13:06:33;;;;;;;1.85;1.05;;;29.10;96.70;;;;;;4886963;29;20131;-69